createdAt,value
2018-12-05T00:00:15.332Z,76.42
2018-12-05T00:02:44.345Z,74.17
2018-12-05T00:05:13.405Z,75.55
2018-12-05T00:07:42.446Z,73.37
2018-12-05T00:10:11.605Z,74.72
2018-12-05T00:12:40.622Z,71.97
2018-12-05T00:15:09.816Z,74.40
2018-12-05T00:17:38.835Z,72.05
2018-12-05T00:20:08.035Z,71.62
2018-12-05T00:22:37.014Z,70.83
2018-12-05T00:25:06.316Z,69.65
2018-12-05T00:27:35.415Z,73.80
2018-12-05T00:30:04.793Z,68.80
2018-12-05T00:32:33.826Z,70.03
2018-12-05T00:35:02.803Z,68.78
2018-12-05T00:37:31.923Z,68.37
2018-12-05T00:40:01.191Z,67.58
2018-12-05T00:42:30.212Z,67.67
2018-12-05T00:44:59.215Z,66.47
2018-12-05T00:47:28.317Z,68.33
2018-12-05T00:49:57.468Z,65.65
2018-12-05T00:52:26.504Z,67.03
2018-12-05T00:54:55.691Z,65.80
2018-12-05T00:57:24.815Z,64.47
2018-12-05T00:59:53.797Z,64.72
2018-12-05T01:02:23.039Z,65.37
2018-12-05T01:04:52.028Z,64.42
2018-12-05T01:07:21.211Z,64.58
2018-12-05T01:09:50.311Z,64.22
2018-12-05T01:12:19.305Z,64.25
2018-12-05T01:14:48.379Z,63.78
2018-12-05T01:17:17.475Z,64.67
2018-12-05T01:19:46.422Z,63.63
2018-12-05T01:22:15.459Z,60.78
2018-12-05T01:24:44.537Z,60.28
2018-12-05T01:27:13.729Z,61.85
2018-12-05T01:29:42.884Z,61.60
2018-12-05T01:32:11.814Z,59.42
2018-12-05T01:34:40.925Z,62.08
2018-12-05T01:37:09.908Z,60.40
2018-12-05T01:39:38.918Z,61.18
2018-12-05T01:42:08.026Z,62.05
2018-12-05T01:44:37.019Z,61.00
2018-12-05T01:47:06.124Z,61.28
2018-12-05T01:49:35.200Z,62.93
2018-12-05T01:52:04.310Z,61.20
2018-12-05T01:54:33.295Z,58.23
2018-12-05T01:57:02.291Z,59.42
2018-12-05T01:59:31.491Z,60.28
2018-12-05T02:02:00.565Z,59.23
2018-12-05T02:04:29.533Z,61.20
2018-12-05T02:06:58.576Z,59.88
2018-12-05T02:09:27.559Z,59.15
2018-12-05T02:11:56.640Z,58.92
2018-12-05T02:14:25.657Z,59.95
2018-12-05T02:16:54.792Z,57.45
2018-12-05T02:19:23.849Z,57.13
2018-12-05T02:21:52.928Z,58.48
2018-12-05T02:24:22.140Z,58.42
2018-12-05T02:26:51.293Z,60.38
2018-12-05T02:29:20.491Z,59.80
2018-12-05T02:31:49.532Z,59.03
2018-12-05T02:34:18.641Z,59.08
2018-12-05T02:36:47.612Z,57.70
2018-12-05T02:39:16.613Z,56.48
2018-12-05T02:41:45.708Z,57.00
2018-12-05T02:44:14.804Z,56.45
2018-12-05T02:46:43.904Z,56.37
2018-12-05T02:49:12.995Z,56.85
2018-12-05T02:51:42.064Z,56.58
2018-12-05T02:54:11.180Z,56.13
2018-12-05T02:56:40.287Z,56.23
2018-12-05T02:59:09.396Z,56.55
2018-12-05T03:01:38.369Z,55.00
2018-12-05T03:04:07.372Z,56.15
2018-12-05T03:06:36.499Z,54.30
2018-12-05T03:09:08.037Z,55.38
2018-12-05T03:11:37.028Z,54.67
2018-12-05T03:14:06.107Z,55.08
2018-12-05T03:16:35.229Z,55.65
2018-12-05T03:19:04.191Z,53.60
2018-12-05T03:21:33.261Z,54.18
2018-12-05T03:24:02.204Z,53.25
2018-12-05T03:26:31.172Z,53.52
2018-12-05T03:29:00.269Z,54.27
2018-12-05T03:31:29.284Z,52.23
2018-12-05T03:33:58.372Z,53.70
2018-12-05T03:36:27.464Z,52.55
2018-12-05T03:38:56.549Z,52.13
2018-12-05T03:41:25.590Z,52.08
2018-12-05T03:43:54.588Z,51.42
2018-12-05T03:46:23.659Z,51.08
2018-12-05T03:48:52.754Z,53.00
2018-12-05T03:51:21.874Z,50.43
2018-12-05T03:53:50.848Z,50.10
2018-12-05T03:56:19.872Z,51.98
2018-12-05T03:58:49.043Z,50.10
2018-12-05T04:01:18.154Z,49.75
2018-12-05T04:03:47.080Z,50.83
2018-12-05T04:06:16.105Z,50.92
2018-12-05T04:08:45.195Z,51.00
2018-12-05T04:11:14.339Z,51.48
2018-12-05T04:13:43.406Z,48.33
2018-12-05T04:16:12.399Z,50.20
2018-12-05T04:18:41.528Z,49.20
2018-12-05T04:21:10.597Z,49.08
2018-12-05T04:23:39.713Z,49.27
2018-12-05T04:26:08.792Z,48.92
2018-12-05T04:28:37.799Z,48.48
2018-12-05T04:31:06.775Z,48.75
2018-12-05T04:33:35.884Z,49.95
2018-12-05T04:36:04.748Z,49.63
2018-12-05T04:38:33.853Z,48.28
2018-12-05T04:41:02.839Z,49.08
2018-12-05T04:43:31.840Z,49.45
2018-12-05T04:46:00.932Z,48.45
2018-12-05T04:48:30.079Z,49.53
2018-12-05T04:50:59.142Z,48.52
2018-12-05T04:53:28.146Z,48.85
2018-12-05T04:55:57.242Z,49.27
2018-12-05T04:58:26.331Z,48.02
2018-12-05T05:00:55.487Z,48.02
2018-12-05T05:03:24.551Z,47.80
2018-12-05T05:05:53.522Z,49.20
2018-12-05T05:08:22.727Z,49.15
2018-12-05T05:10:51.779Z,47.48
2018-12-05T05:13:20.847Z,46.85
2018-12-05T05:15:49.779Z,48.28
2018-12-05T05:18:18.784Z,47.00
2018-12-05T05:20:48.040Z,47.98
2018-12-05T05:23:17.003Z,47.43
2018-12-05T05:25:46.269Z,47.05
2018-12-05T05:28:15.280Z,47.40
2018-12-05T05:30:44.364Z,45.88
2018-12-05T05:33:13.368Z,48.05
2018-12-05T05:35:42.365Z,47.10
2018-12-05T05:38:11.348Z,47.53
2018-12-05T05:40:40.352Z,45.10
2018-12-05T05:43:09.376Z,45.95
2018-12-05T05:45:38.457Z,45.80
2018-12-05T05:48:07.550Z,46.53
2018-12-05T05:50:36.739Z,46.18
2018-12-05T05:53:05.850Z,46.85
2018-12-05T05:55:34.830Z,45.17
2018-12-05T05:58:03.832Z,44.93
2018-12-05T06:00:32.880Z,45.63
2018-12-05T06:03:01.819Z,47.15
2018-12-05T06:05:30.788Z,48.60
2018-12-05T06:07:59.839Z,44.70
2018-12-05T06:10:28.896Z,46.42
2018-12-05T06:12:57.976Z,46.25
2018-12-05T06:15:27.281Z,45.15
2018-12-05T06:17:56.237Z,43.17
2018-12-05T06:20:25.276Z,42.60
2018-12-05T06:22:54.259Z,43.23
2018-12-05T06:25:23.275Z,43.00
2018-12-05T06:27:52.164Z,41.58
2018-12-05T06:30:21.273Z,38.63
2018-12-05T06:32:50.252Z,34.73
2018-12-05T06:35:19.365Z,26.57
2018-12-05T06:37:48.362Z,24.10
2018-12-05T06:40:17.435Z,33.58
2018-12-05T06:42:46.525Z,33.10
2018-12-05T06:45:15.627Z,29.77
2018-12-05T06:47:44.620Z,22.42
2018-12-05T06:50:13.625Z,21.73
2018-12-05T06:52:42.620Z,25.32
2018-12-05T06:55:11.785Z,26.70
2018-12-05T06:57:41.012Z,26.30
2018-12-05T07:00:10.113Z,27.32
2018-12-05T07:02:39.214Z,25.60
2018-12-05T07:05:08.200Z,25.68
2018-12-05T07:07:37.321Z,26.27
2018-12-05T07:10:06.780Z,24.37
2018-12-05T07:12:35.895Z,26.70
2018-12-05T07:15:04.902Z,24.87
2018-12-05T07:17:33.897Z,24.05
2018-12-05T07:20:02.882Z,23.55
2018-12-05T07:22:31.890Z,24.20
2018-12-05T07:25:00.909Z,24.63
2018-12-05T07:27:30.032Z,23.18
2018-12-05T07:29:59.905Z,22.10
2018-12-05T07:32:29.055Z,22.62
2018-12-05T07:34:58.112Z,21.55
2018-12-05T07:37:27.074Z,21.62
2018-12-05T07:39:56.181Z,21.45
2018-12-05T07:42:25.269Z,21.57
2018-12-05T07:44:54.369Z,20.97
2018-12-05T07:47:23.226Z,20.60
2018-12-05T07:49:52.247Z,19.45
2018-12-05T07:52:21.342Z,19.92
2018-12-05T07:54:50.472Z,20.45
2018-12-05T07:57:19.436Z,19.92
2018-12-05T07:59:48.531Z,19.02
2018-12-05T08:02:17.577Z,19.57
2018-12-05T08:04:46.723Z,19.40
2018-12-05T08:07:15.923Z,18.40
2018-12-05T08:09:45.004Z,16.12
2018-12-05T08:12:14.107Z,18.98
2018-12-05T08:14:43.406Z,16.25
2018-12-05T08:17:12.489Z,16.62
2018-12-05T08:19:41.638Z,14.10
2018-12-05T08:22:10.808Z,14.55
2018-12-05T08:24:39.956Z,10.28
2018-12-05T08:27:09.462Z,10.53
2018-12-05T08:29:38.589Z,10.72
2018-12-05T08:32:07.660Z,14.18
2018-12-05T08:34:36.852Z,13.60
2018-12-05T08:37:05.988Z,13.25
2018-12-05T08:39:35.214Z,10.70
2018-12-05T08:42:04.318Z,8.93
2018-12-05T08:44:33.303Z,9.90
2018-12-05T08:47:02.615Z,10.30
2018-12-05T08:49:31.739Z,13.55
2018-12-05T08:52:00.797Z,12.43
2018-12-05T08:54:29.886Z,11.50
2018-12-05T08:56:58.936Z,10.63
2018-12-05T08:59:27.951Z,11.53
2018-12-05T09:01:57.053Z,11.30
2018-12-05T09:04:26.064Z,11.20
2018-12-05T09:06:55.169Z,10.72
2018-12-05T09:09:24.146Z,10.38
2018-12-05T09:11:53.494Z,9.90
2018-12-05T09:14:28.627Z,10.45
2018-12-05T09:16:53.491Z,10.70
2018-12-05T09:19:22.490Z,9.95
2018-12-05T09:21:51.471Z,10.20
2018-12-05T09:24:20.472Z,10.38
2018-12-05T09:26:49.449Z,9.65
2018-12-05T09:29:18.499Z,10.48
2018-12-05T09:31:47.456Z,9.65
2018-12-05T09:34:16.545Z,10.30
2018-12-05T09:36:45.646Z,9.13
2018-12-05T09:39:14.629Z,9.30
2018-12-05T09:41:43.607Z,9.45
2018-12-05T09:44:12.640Z,9.83
2018-12-05T09:46:41.623Z,11.50
2018-12-05T09:49:10.823Z,10.18
2018-12-05T09:51:39.943Z,9.70
2018-12-05T09:54:08.915Z,10.15
2018-12-05T09:56:38.027Z,9.65
2018-12-05T09:59:06.830Z,9.95
2018-12-05T10:01:35.867Z,8.90
2018-12-05T10:04:05.095Z,8.95
2018-12-05T10:06:34.289Z,9.70
2018-12-05T10:09:04.354Z,9.13
2018-12-05T10:11:33.409Z,9.20
2018-12-05T10:14:02.730Z,8.93
2018-12-05T10:16:31.996Z,8.93
2018-12-05T10:19:01.112Z,8.43
2018-12-05T10:21:30.380Z,8.65
2018-12-05T10:23:59.556Z,9.00
2018-12-05T10:26:28.595Z,8.18
2018-12-05T10:28:57.812Z,8.08
2018-12-05T10:31:27.036Z,8.10
2018-12-05T10:33:56.201Z,8.33
2018-12-05T10:36:25.286Z,9.45
2018-12-05T10:38:54.272Z,8.90
2018-12-05T10:41:23.473Z,8.28
2018-12-05T10:43:52.579Z,7.78
2018-12-05T10:46:21.661Z,7.60
2018-12-05T10:48:50.771Z,13.35
2018-12-05T10:51:20.024Z,9.75
2018-12-05T10:53:49.062Z,17.35
2018-12-05T10:56:18.093Z,14.90
2018-12-05T10:58:47.144Z,21.15
2018-12-05T11:01:21.090Z,18.70
2018-12-05T11:03:50.117Z,21.35
2018-12-05T11:06:24.156Z,23.67
2018-12-05T11:08:58.248Z,21.93
2018-12-05T11:11:32.472Z,21.90
2018-12-05T11:14:06.512Z,23.20
2018-12-05T11:16:40.449Z,28.02
2018-12-05T11:19:14.640Z,25.57
2018-12-05T11:21:49.779Z,27.00
2018-12-05T11:24:24.113Z,30.43
2018-12-05T11:26:53.270Z,31.05
2018-12-05T11:29:22.280Z,33.25
2018-12-05T11:31:51.272Z,34.50
2018-12-05T11:34:20.412Z,38.78
2018-12-05T11:36:50.300Z,35.40
2018-12-05T11:39:19.413Z,35.73
2018-12-05T11:41:48.500Z,41.02
2018-12-05T11:44:17.502Z,46.77
2018-12-05T11:46:46.552Z,41.65
2018-12-05T11:49:15.547Z,46.00
2018-12-05T11:51:44.657Z,43.08
2018-12-05T11:54:13.760Z,42.78
2018-12-05T11:56:42.904Z,45.45
2018-12-05T11:59:12.009Z,48.08
2018-12-05T12:01:41.129Z,47.27
2018-12-05T12:04:10.262Z,47.40
2018-12-05T12:06:39.236Z,49.77
2018-12-05T12:09:09.660Z,51.98
2018-12-05T12:11:38.859Z,59.53
2018-12-05T12:14:08.004Z,61.25
2018-12-05T12:16:37.077Z,60.20
2018-12-05T12:19:06.068Z,59.67
2018-12-05T12:21:35.073Z,56.25
2018-12-05T12:24:04.128Z,59.27
2018-12-05T12:26:33.506Z,59.53
2018-12-05T12:29:02.661Z,57.20
2018-12-05T12:31:31.698Z,61.83
2018-12-05T12:34:00.883Z,62.85
2018-12-05T12:36:29.952Z,64.82
2018-12-05T12:38:59.158Z,63.78
2018-12-05T12:41:28.564Z,62.60
2018-12-05T12:43:57.900Z,63.92
2018-12-05T12:46:27.189Z,67.97
2018-12-05T12:48:56.324Z,67.32
2018-12-05T12:51:26.483Z,72.08
2018-12-05T12:53:55.601Z,69.40
2018-12-05T12:56:24.792Z,69.42
2018-12-05T12:58:54.796Z,72.17
2018-12-05T13:01:24.349Z,70.85
2018-12-05T13:03:53.477Z,74.80
2018-12-05T13:06:22.668Z,74.35
2018-12-05T13:08:52.621Z,101.53
2018-12-05T13:11:21.621Z,82.35
2018-12-05T13:13:50.536Z,77.17
2018-12-05T13:16:20.784Z,88.65
2018-12-05T13:18:49.957Z,80.45
2018-12-05T13:21:18.889Z,90.57
2018-12-05T13:23:47.992Z,106.10
2018-12-05T13:26:17.007Z,88.78
2018-12-05T13:28:46.063Z,81.63
2018-12-05T13:31:15.151Z,87.92
2018-12-05T13:33:44.235Z,87.62
2018-12-05T13:36:13.401Z,108.67
2018-12-05T13:38:42.622Z,121.05
2018-12-05T13:41:11.779Z,94.90
2018-12-05T13:43:40.830Z,78.83
2018-12-05T13:46:09.980Z,73.95
2018-12-05T13:48:38.971Z,96.67
2018-12-05T13:51:08.920Z,117.25
2018-12-05T13:53:39.069Z,122.50
2018-12-05T13:56:08.245Z,118.67
2018-12-05T13:58:37.215Z,109.97
2018-12-05T14:01:06.396Z,117.40
2018-12-05T14:03:35.635Z,82.53
2018-12-05T14:06:04.783Z,120.30
2018-12-05T14:08:33.804Z,116.35
2018-12-05T14:11:03.889Z,120.47
2018-12-05T14:13:33.209Z,112.95
2018-12-05T14:16:02.588Z,96.57
2018-12-05T14:18:31.628Z,83.45
2018-12-05T14:21:00.677Z,99.35
2018-12-05T14:23:29.699Z,106.85
2018-12-05T14:25:58.856Z,98.72
2018-12-05T14:28:27.879Z,98.58
2018-12-05T14:30:57.029Z,75.37
2018-12-05T14:33:25.854Z,70.83
2018-12-05T14:35:55.566Z,93.65
2018-12-05T14:38:24.995Z,98.62
2018-12-05T14:40:54.289Z,108.07
2018-12-05T14:43:23.576Z,101.53
2018-12-05T14:45:52.578Z,92.78
2018-12-05T14:48:21.652Z,80.35
2018-12-05T14:50:50.767Z,103.60
2018-12-05T14:53:19.997Z,109.78
2018-12-05T14:55:49.088Z,108.12
2018-12-05T14:58:18.117Z,101.95
2018-12-05T15:00:47.271Z,70.30
2018-12-05T15:03:16.392Z,65.70
2018-12-05T15:05:45.647Z,70.97
2018-12-05T15:08:14.827Z,74.15
2018-12-05T15:10:44.067Z,75.35
2018-12-05T15:13:13.179Z,92.57
2018-12-05T15:15:42.261Z,71.85
2018-12-05T15:18:11.368Z,80.10
2018-12-05T15:20:40.555Z,73.92
2018-12-05T15:23:09.964Z,67.03
2018-12-05T15:25:39.060Z,66.02
2018-12-05T15:28:08.239Z,94.45
2018-12-05T15:30:37.440Z,97.95
2018-12-05T15:33:06.604Z,85.35
2018-12-05T15:35:35.625Z,70.90
2018-12-05T15:38:04.645Z,71.95
2018-12-05T15:40:34.666Z,71.53
2018-12-05T15:43:03.813Z,87.27
2018-12-05T15:45:33.215Z,109.78
2018-12-05T15:48:02.451Z,102.65
2018-12-05T15:50:31.574Z,74.60
2018-12-05T15:53:00.552Z,82.45
2018-12-05T15:55:29.848Z,80.17
2018-12-05T15:57:58.951Z,82.42
2018-12-05T16:00:28.218Z,109.40
2018-12-05T16:02:57.452Z,104.75
2018-12-05T16:05:26.544Z,83.78
2018-12-05T16:07:55.686Z,84.67
2018-12-05T16:10:24.740Z,88.92
2018-12-05T16:12:53.732Z,88.40
2018-12-05T16:15:22.772Z,83.33
2018-12-05T16:17:51.960Z,88.58
2018-12-05T16:20:20.987Z,111.37
2018-12-05T16:22:50.107Z,94.40
2018-12-05T16:25:19.818Z,97.12
2018-12-05T16:27:48.932Z,89.45
2018-12-05T16:30:18.125Z,91.85
2018-12-05T16:32:47.354Z,123.53
2018-12-05T16:35:17.383Z,125.18
2018-12-05T16:37:46.397Z,118.67
2018-12-05T16:40:16.660Z,110.48
2018-12-05T16:42:45.412Z,98.33
2018-12-05T16:45:14.448Z,100.02
2018-12-05T16:47:43.655Z,107.90
2018-12-05T16:50:12.944Z,132.40
2018-12-05T16:52:41.934Z,134.15
2018-12-05T16:55:11.032Z,133.32
2018-12-05T16:57:40.225Z,129.35
2018-12-05T17:00:11.046Z,112.85
2018-12-05T17:02:40.262Z,104.43
2018-12-05T17:05:09.463Z,111.92
2018-12-05T17:07:38.449Z,130.52
2018-12-05T17:10:07.864Z,105.10
2018-12-05T17:12:37.140Z,123.38
2018-12-05T17:15:06.205Z,114.82
2018-12-05T17:17:35.392Z,71.87
2018-12-05T17:20:04.336Z,53.78
2018-12-05T17:22:33.436Z,94.00
2018-12-05T17:25:02.481Z,100.42
2018-12-05T17:27:31.452Z,85.50
2018-12-05T17:30:00.639Z,82.82
2018-12-05T17:32:29.641Z,91.72
2018-12-05T17:34:58.751Z,84.50
2018-12-05T17:37:27.861Z,83.37
2018-12-05T17:39:57.084Z,84.67
2018-12-05T17:42:26.285Z,85.07
2018-12-05T17:44:55.355Z,86.40
2018-12-05T17:47:24.415Z,83.78
2018-12-05T17:49:53.706Z,84.28
2018-12-05T17:52:22.907Z,84.28
2018-12-05T17:54:52.013Z,82.97
2018-12-05T17:57:21.112Z,80.45
2018-12-05T17:59:50.126Z,78.67
2018-12-05T18:02:19.084Z,80.57
2018-12-05T18:04:48.077Z,79.85
2018-12-05T18:07:17.074Z,77.20
2018-12-05T18:09:46.164Z,78.40
2018-12-05T18:12:15.204Z,76.05
2018-12-05T18:14:44.256Z,77.97
2018-12-05T18:17:13.352Z,74.82
2018-12-05T18:19:42.376Z,71.30
2018-12-05T18:22:11.436Z,75.00
2018-12-05T18:24:40.600Z,70.72
2018-12-05T18:27:09.664Z,69.35
2018-12-05T18:29:38.843Z,69.55
2018-12-05T18:32:07.943Z,71.80
2018-12-05T18:34:36.945Z,68.55
2018-12-05T18:37:06.096Z,69.72
2018-12-05T18:39:35.152Z,68.78
2018-12-05T18:42:04.133Z,68.83
2018-12-05T18:44:33.112Z,67.42
2018-12-05T18:47:02.100Z,63.52
2018-12-05T18:49:31.198Z,65.52
2018-12-05T18:52:00.137Z,64.77
2018-12-05T18:54:29.204Z,63.23
2018-12-05T18:56:58.195Z,61.50
2018-12-05T18:59:27.220Z,60.23
2018-12-05T19:01:56.726Z,59.67
2018-12-05T19:04:25.844Z,59.35
2018-12-05T19:06:55.020Z,60.05
2018-12-05T19:09:26.943Z,61.55
2018-12-05T19:23:28.729Z,59.70
2018-12-05T19:25:57.864Z,58.85
2018-12-05T19:28:27.093Z,57.20
2018-12-05T19:30:56.115Z,55.50
2018-12-05T19:33:25.280Z,55.05
2018-12-05T19:35:54.616Z,55.55
2018-12-05T19:38:23.585Z,52.83
2018-12-05T19:40:52.660Z,53.92
2018-12-05T19:43:21.785Z,52.67
2018-12-05T19:45:51.197Z,53.70
2018-12-05T19:48:21.967Z,53.13
2018-12-05T19:50:50.939Z,50.50
2018-12-05T19:53:19.871Z,51.77
2018-12-05T19:55:49.004Z,48.33
2018-12-05T19:58:18.135Z,47.73
2018-12-05T20:00:47.456Z,48.87
2018-12-05T20:03:16.522Z,47.83
2018-12-05T20:05:45.748Z,47.10
2018-12-05T20:08:14.918Z,45.92
2018-12-05T20:10:44.117Z,45.48
2018-12-05T20:13:13.205Z,45.88
2018-12-05T20:15:42.305Z,46.05
2018-12-05T20:18:11.545Z,44.20
2018-12-05T20:20:40.792Z,43.08
2018-12-05T20:23:09.968Z,42.35
2018-12-05T20:25:39.180Z,42.80
2018-12-05T20:28:08.365Z,43.05
2018-12-05T20:30:37.484Z,41.58
2018-12-05T20:33:06.672Z,42.03
2018-12-05T20:35:36.026Z,41.68
2018-12-05T20:38:05.145Z,42.40
2018-12-05T20:40:34.848Z,41.23
2018-12-05T20:43:03.979Z,40.78
2018-12-05T20:45:33.084Z,40.23
2018-12-05T20:48:02.168Z,38.73
2018-12-05T20:50:31.273Z,38.53
2018-12-05T20:53:00.366Z,39.03
2018-12-05T20:55:29.467Z,39.13
2018-12-05T20:57:58.489Z,38.17
2018-12-05T21:00:27.548Z,36.50
2018-12-05T21:02:56.543Z,37.42
2018-12-05T21:05:25.531Z,36.53
2018-12-05T21:07:54.608Z,36.42
2018-12-05T21:10:23.641Z,35.85
2018-12-05T21:12:52.608Z,35.48
2018-12-05T21:15:21.755Z,34.60
2018-12-05T21:17:50.743Z,35.48
2018-12-05T21:20:19.708Z,34.85
2018-12-05T21:22:48.707Z,33.73
2018-12-05T21:25:17.708Z,34.53
2018-12-05T21:27:46.900Z,33.45
2018-12-05T21:30:16.000Z,33.90
2018-12-05T21:32:44.942Z,32.67
2018-12-05T21:35:13.923Z,33.20
2018-12-05T21:37:42.934Z,33.23
2018-12-05T21:40:11.923Z,33.25
2018-12-05T21:42:41.197Z,32.98
2018-12-05T21:45:10.171Z,31.45
2018-12-05T21:47:39.240Z,31.23
2018-12-05T21:50:08.336Z,31.10
2018-12-05T21:52:37.479Z,30.75
2018-12-05T21:55:06.996Z,30.97
2018-12-05T21:57:35.968Z,29.85
2018-12-05T22:00:06.412Z,29.40
2018-12-05T22:02:35.353Z,29.23
2018-12-05T22:05:04.443Z,28.85
2018-12-05T22:07:33.449Z,29.30
2018-12-05T22:10:02.559Z,29.12
2018-12-05T22:12:31.652Z,28.80
2018-12-05T22:15:00.745Z,27.32
2018-12-05T22:17:29.737Z,26.95
2018-12-05T22:19:58.840Z,27.90
2018-12-05T22:22:27.836Z,28.17
2018-12-05T22:24:57.131Z,27.87
2018-12-05T22:27:26.239Z,27.07
2018-12-05T22:29:55.231Z,26.02
2018-12-05T22:32:24.321Z,26.15
2018-12-05T22:34:53.438Z,25.57
2018-12-05T22:37:22.616Z,26.02
2018-12-05T22:39:51.720Z,26.35
2018-12-05T22:42:20.666Z,25.25
2018-12-05T22:44:49.760Z,25.08
2018-12-05T22:47:18.795Z,24.75
2018-12-05T22:49:47.876Z,25.08
2018-12-05T22:52:16.972Z,24.40
2018-12-05T22:54:45.985Z,23.10
2018-12-05T22:57:15.983Z,24.52
2018-12-05T22:59:45.100Z,23.95
2018-12-05T23:02:14.416Z,24.02
2018-12-05T23:04:43.502Z,23.02
2018-12-05T23:07:12.519Z,23.47
2018-12-05T23:09:41.488Z,23.77
2018-12-05T23:12:10.547Z,22.70
2018-12-05T23:14:39.564Z,22.13
2018-12-05T23:17:08.652Z,23.38
2018-12-05T23:19:37.672Z,22.90
2018-12-05T23:22:06.640Z,22.20
2018-12-05T23:24:35.753Z,21.07
2018-12-05T23:27:04.747Z,21.62
2018-12-05T23:29:33.758Z,21.15
2018-12-05T23:32:02.842Z,21.25
2018-12-05T23:34:31.945Z,19.82
2018-12-05T23:37:00.933Z,20.57
2018-12-05T23:39:30.069Z,21.02
2018-12-05T23:41:59.028Z,21.75
2018-12-05T23:44:44.172Z,22.50
2018-12-05T23:47:13.202Z,20.88
2018-12-05T23:49:42.216Z,20.37
2018-12-05T23:52:11.388Z,20.77
2018-12-05T23:54:40.380Z,19.67
2018-12-05T23:57:09.330Z,20.82
2018-12-05T23:59:38.362Z,20.32
